createdAt,value
2019-05-15T00:00:04.902Z,53.77
2019-05-15T00:01:04.912Z,54.15
2019-05-15T00:02:04.962Z,54.53
2019-05-15T00:03:04.966Z,53.96
2019-05-15T00:04:04.982Z,54.06
2019-05-15T00:05:04.996Z,54.15
2019-05-15T00:06:05.060Z,54.44
2019-05-15T00:07:05.051Z,54.35
2019-05-15T00:08:05.076Z,53.96
2019-05-15T00:09:05.097Z,54.15
2019-05-15T00:10:05.106Z,54.35
2019-05-15T00:11:05.136Z,54.72
2019-05-15T00:12:05.161Z,54.63
2019-05-15T00:13:05.175Z,54.72
2019-05-15T00:14:05.203Z,54.35
2019-05-15T00:15:05.220Z,54.35
2019-05-15T00:16:05.259Z,53.49
2019-05-15T00:17:05.271Z,54.25
2019-05-15T00:18:05.288Z,54.35
2019-05-15T00:19:05.308Z,54.63
2019-05-15T00:20:05.358Z,54.35
2019-05-15T00:21:05.361Z,54.22
2019-05-15T00:22:05.374Z,54.44
2019-05-15T00:23:05.403Z,54.91
2019-05-15T00:24:05.453Z,55.01
2019-05-15T00:25:05.454Z,54.91
2019-05-15T00:26:05.464Z,54.53
2019-05-15T00:27:05.501Z,54.13
2019-05-15T00:28:05.515Z,54.32
2019-05-15T00:29:14.777Z,54.41
2019-05-15T00:30:05.558Z,54.79
2019-05-15T00:31:05.590Z,54.50
2019-05-15T00:32:05.597Z,55.27
2019-05-15T00:33:05.622Z,54.89
2019-05-15T00:34:05.691Z,54.41
2019-05-15T00:35:05.666Z,54.41
2019-05-15T00:36:05.694Z,54.79
2019-05-15T00:37:05.716Z,54.69
2019-05-15T00:38:05.742Z,54.89
2019-05-15T00:39:08.254Z,54.69
2019-05-15T00:40:05.774Z,55.55
2019-05-15T00:41:05.811Z,55.46
2019-05-15T00:42:08.143Z,55.55
2019-05-15T00:43:05.846Z,55.55
2019-05-15T00:44:05.865Z,55.55
2019-05-15T00:45:05.892Z,55.46
2019-05-15T00:46:05.911Z,55.46
2019-05-15T00:47:05.953Z,55.36
2019-05-15T00:48:05.965Z,55.46
2019-05-15T00:49:08.521Z,55.36
2019-05-15T00:50:06.009Z,55.36
2019-05-15T00:51:08.292Z,55.55
2019-05-15T00:52:11.793Z,55.74
2019-05-15T00:53:08.072Z,55.46
2019-05-15T00:54:08.269Z,55.55
2019-05-15T00:55:08.498Z,55.36
2019-05-15T00:56:06.129Z,56.03
2019-05-15T00:57:08.425Z,56.03
2019-05-15T00:58:08.478Z,55.46
2019-05-15T00:59:08.232Z,56.03
2019-05-15T01:00:08.211Z,55.74
2019-05-15T01:01:08.202Z,55.74
2019-05-15T01:02:08.550Z,55.17
2019-05-15T01:03:08.557Z,55.93
2019-05-15T01:04:08.034Z,55.83
2019-05-15T01:05:08.102Z,55.74
2019-05-15T01:06:08.345Z,55.65
2019-05-15T01:07:08.322Z,56.22
2019-05-15T01:08:08.215Z,56.70
2019-05-15T01:09:08.328Z,56.79
2019-05-15T01:10:06.447Z,56.60
2019-05-15T01:11:08.885Z,56.79
2019-05-15T01:12:08.896Z,56.31
2019-05-15T01:13:08.477Z,56.79
2019-05-15T01:14:06.541Z,56.41
2019-05-15T01:15:08.986Z,56.88
2019-05-15T01:16:08.903Z,56.51
2019-05-15T01:17:08.877Z,56.60
2019-05-15T01:18:09.048Z,56.98
2019-05-15T01:20:08.478Z,57.07
2019-05-15T01:21:08.392Z,56.98
2019-05-15T01:22:08.694Z,57.17
2019-05-15T01:23:08.876Z,56.79
2019-05-15T01:24:08.386Z,56.60
2019-05-15T01:25:08.615Z,56.88
2019-05-15T01:26:08.349Z,56.60
2019-05-15T01:27:09.008Z,56.60
2019-05-15T01:28:09.100Z,57.26
2019-05-15T01:29:08.931Z,57.07
2019-05-15T01:30:08.963Z,57.36
2019-05-15T01:31:08.617Z,57.45
2019-05-15T01:32:08.424Z,57.45
2019-05-15T01:33:08.411Z,57.45
2019-05-15T01:34:08.995Z,57.36
2019-05-15T01:35:09.198Z,57.55
2019-05-15T01:36:08.463Z,57.74
2019-05-15T01:37:08.524Z,57.74
2019-05-15T01:38:08.096Z,57.65
2019-05-15T01:39:07.992Z,57.84
2019-05-15T01:40:08.857Z,57.65
2019-05-15T01:41:09.496Z,57.74
2019-05-15T01:42:08.334Z,57.45
2019-05-15T01:43:09.048Z,57.65
2019-05-15T01:44:08.864Z,57.62
2019-05-15T01:45:08.668Z,57.90
2019-05-15T01:46:08.454Z,58.40
2019-05-15T01:47:08.454Z,57.65
2019-05-15T01:48:08.169Z,57.52
2019-05-15T01:49:08.056Z,57.74
2019-05-15T01:50:09.193Z,57.55
2019-05-15T01:51:09.340Z,57.84
2019-05-15T01:52:08.019Z,57.55
2019-05-15T01:53:08.171Z,57.45
2019-05-15T01:54:09.089Z,57.62
2019-05-15T01:55:09.175Z,57.43
2019-05-15T01:56:08.385Z,58.40
2019-05-15T01:57:09.280Z,58.59
2019-05-15T01:58:09.032Z,58.40
2019-05-15T01:59:08.664Z,57.45
2019-05-15T02:00:08.751Z,57.71
2019-05-15T02:01:08.178Z,57.71
2019-05-15T02:02:09.627Z,58.18
2019-05-15T02:03:09.922Z,58.28
2019-05-15T02:04:08.358Z,57.90
2019-05-15T02:05:08.506Z,58.57
2019-05-15T02:06:08.254Z,58.47
2019-05-15T02:07:08.336Z,58.47
2019-05-15T02:08:08.323Z,58.00
2019-05-15T02:09:08.337Z,58.47
2019-05-15T02:10:09.167Z,58.28
2019-05-15T02:11:09.115Z,58.09
2019-05-15T02:12:08.701Z,58.28
2019-05-15T02:13:08.511Z,57.90
2019-05-15T02:14:08.284Z,58.18
2019-05-15T02:15:08.547Z,58.09
2019-05-15T02:16:08.357Z,58.18
2019-05-15T02:17:08.507Z,58.57
2019-05-15T02:18:08.549Z,58.28
2019-05-15T02:19:08.913Z,58.57
2019-05-15T02:20:08.481Z,58.47
2019-05-15T02:21:10.283Z,58.47
2019-05-15T02:22:08.402Z,58.66
2019-05-15T02:23:11.639Z,58.66
2019-05-15T02:24:08.159Z,59.42
2019-05-15T02:25:08.692Z,59.42
2019-05-15T02:26:08.136Z,59.71
2019-05-15T02:27:09.008Z,59.61
2019-05-15T02:28:09.331Z,59.52
2019-05-15T02:29:10.477Z,59.71
2019-05-15T02:30:17.916Z,59.61
2019-05-15T02:31:10.391Z,59.14
2019-05-15T02:32:10.260Z,59.23
2019-05-15T02:33:10.516Z,58.95
2019-05-15T02:34:10.284Z,59.52
2019-05-15T02:35:10.092Z,59.23
2019-05-15T02:36:09.738Z,59.71
2019-05-15T02:37:09.017Z,59.90
2019-05-15T02:38:10.235Z,59.33
2019-05-15T02:39:08.994Z,59.61
2019-05-15T02:40:09.883Z,59.14
2019-05-15T02:41:09.802Z,59.52
2019-05-15T02:42:09.895Z,59.33
2019-05-15T02:43:10.116Z,59.33
2019-05-15T02:44:10.973Z,59.33
2019-05-15T02:45:09.872Z,59.42
2019-05-15T02:46:10.002Z,59.05
2019-05-15T02:47:09.307Z,59.05
2019-05-15T02:48:09.095Z,59.33
2019-05-15T02:49:09.020Z,59.61
2019-05-15T02:50:10.772Z,59.71
2019-05-15T02:51:09.708Z,59.71
2019-05-15T02:52:09.886Z,59.71
2019-05-15T02:53:09.937Z,59.90
2019-05-15T02:54:10.266Z,59.61
2019-05-15T02:55:09.516Z,59.71
2019-05-15T02:56:09.567Z,59.61
2019-05-15T02:57:09.794Z,59.87
2019-05-15T02:58:09.880Z,59.68
2019-05-15T02:59:09.328Z,59.96
2019-05-15T03:00:10.829Z,59.90
2019-05-15T03:01:09.385Z,59.77
2019-05-15T03:02:10.212Z,60.25
2019-05-15T03:03:09.603Z,60.06
2019-05-15T03:04:09.403Z,60.18
2019-05-15T03:05:09.523Z,60.18
2019-05-15T03:06:09.993Z,60.09
2019-05-15T03:07:09.588Z,60.35
2019-05-15T03:08:09.782Z,60.16
2019-05-15T03:09:09.720Z,60.06
2019-05-15T03:10:09.504Z,60.18
2019-05-15T03:11:09.900Z,60.28
2019-05-15T03:12:09.237Z,60.35
2019-05-15T03:13:09.952Z,60.35
2019-05-15T03:14:09.444Z,60.63
2019-05-15T03:15:09.850Z,60.44
2019-05-15T03:16:10.117Z,60.66
2019-05-15T03:17:09.880Z,60.82
2019-05-15T03:18:09.957Z,60.66
2019-05-15T03:19:09.992Z,60.63
2019-05-15T03:20:10.341Z,60.53
2019-05-15T03:21:09.953Z,61.29
2019-05-15T03:22:09.966Z,61.39
2019-05-15T03:23:10.043Z,61.29
2019-05-15T03:24:10.150Z,61.29
2019-05-15T03:25:10.664Z,61.01
2019-05-15T03:26:09.414Z,61.87
2019-05-15T03:27:09.471Z,61.96
2019-05-15T03:28:10.494Z,62.53
2019-05-15T03:29:09.953Z,62.05
2019-05-15T03:30:12.702Z,61.20
2019-05-15T03:31:31.080Z,62.34
2019-05-15T03:32:25.546Z,61.68
2019-05-15T03:33:16.202Z,62.34
2019-05-15T03:34:20.378Z,61.58
2019-05-15T03:35:14.611Z,62.34
2019-05-15T03:36:13.265Z,61.87
2019-05-15T03:37:12.375Z,62.53
2019-05-15T03:38:09.704Z,61.96
2019-05-15T03:39:09.866Z,62.43
2019-05-15T03:40:10.570Z,61.87
2019-05-15T03:41:10.330Z,61.96
2019-05-15T03:42:09.775Z,62.24
2019-05-15T03:43:09.788Z,61.87
2019-05-15T03:44:09.808Z,61.58
2019-05-15T03:45:10.488Z,61.96
2019-05-15T03:46:09.868Z,61.96
2019-05-15T03:47:09.868Z,62.15
2019-05-15T03:48:09.891Z,61.87
2019-05-15T03:49:09.926Z,61.77
2019-05-15T03:50:10.018Z,62.15
2019-05-15T03:51:09.950Z,61.80
2019-05-15T03:52:10.232Z,61.87
2019-05-15T03:53:10.652Z,62.18
2019-05-15T03:54:10.019Z,62.24
2019-05-15T03:55:11.115Z,61.58
2019-05-15T03:56:10.150Z,62.15
2019-05-15T03:57:10.085Z,62.43
2019-05-15T03:58:10.501Z,61.87
2019-05-15T03:59:10.135Z,61.96
2019-05-15T04:00:10.309Z,62.05
2019-05-15T04:01:28.568Z,62.24
2019-05-15T04:02:10.191Z,62.62
2019-05-15T04:03:11.066Z,62.24
2019-05-15T04:04:10.257Z,61.96
2019-05-15T04:05:11.870Z,62.43
2019-05-15T04:06:10.455Z,62.34
2019-05-15T04:07:10.304Z,62.43
2019-05-15T04:08:11.147Z,62.62
2019-05-15T04:09:10.340Z,61.87
2019-05-15T04:10:10.583Z,62.24
2019-05-15T04:11:10.389Z,61.87
2019-05-15T04:12:10.414Z,61.58
2019-05-15T04:13:10.433Z,62.08
2019-05-15T04:14:10.456Z,61.71
2019-05-15T04:15:10.838Z,61.80
2019-05-15T04:16:10.774Z,61.80
2019-05-15T04:17:10.540Z,62.18
2019-05-15T04:18:10.550Z,61.71
2019-05-15T04:19:10.559Z,62.27
2019-05-15T04:20:10.761Z,61.80
2019-05-15T04:21:10.599Z,61.61
2019-05-15T04:22:10.619Z,61.80
2019-05-15T04:23:10.900Z,62.18
2019-05-15T04:24:10.667Z,62.08
2019-05-15T04:25:10.694Z,62.18
2019-05-15T04:26:10.713Z,61.80
2019-05-15T04:27:11.018Z,61.52
2019-05-15T04:28:10.753Z,62.37
2019-05-15T04:29:10.798Z,61.90
2019-05-15T04:30:11.210Z,62.56
2019-05-15T04:31:10.832Z,61.90
2019-05-15T04:32:11.154Z,61.99
2019-05-15T04:33:10.870Z,61.61
2019-05-15T04:34:10.880Z,61.42
2019-05-15T04:35:10.912Z,61.23
2019-05-15T04:36:10.929Z,61.61
2019-05-15T04:37:10.949Z,61.80
2019-05-15T04:38:10.970Z,62.08
2019-05-15T04:39:11.020Z,62.18
2019-05-15T04:40:11.025Z,62.18
2019-05-15T04:41:11.031Z,61.42
2019-05-15T04:42:11.056Z,61.61
2019-05-15T04:43:11.352Z,62.18
2019-05-15T04:44:11.097Z,61.52
2019-05-15T04:45:11.112Z,61.32
2019-05-15T04:46:11.136Z,61.80
2019-05-15T04:47:11.170Z,61.52
2019-05-15T04:48:11.177Z,61.42
2019-05-15T04:49:11.218Z,61.80
2019-05-15T04:50:11.231Z,61.52
2019-05-15T04:51:11.266Z,61.71
2019-05-15T04:52:11.264Z,61.32
2019-05-15T04:53:11.306Z,61.42
2019-05-15T04:54:11.319Z,61.71
2019-05-15T04:55:11.330Z,61.52
2019-05-15T04:56:11.352Z,61.52
2019-05-15T04:57:11.379Z,61.32
2019-05-15T04:58:11.404Z,62.08
2019-05-15T04:59:11.440Z,62.08
2019-05-15T05:00:11.458Z,61.13
2019-05-15T05:01:11.476Z,61.61
2019-05-15T05:02:16.878Z,61.42
2019-05-15T05:03:11.512Z,61.61
2019-05-15T05:04:11.529Z,61.42
2019-05-15T05:05:11.556Z,61.42
2019-05-15T05:06:11.569Z,61.42
2019-05-15T05:07:11.591Z,61.52
2019-05-15T05:08:11.631Z,61.42
2019-05-15T05:09:11.641Z,61.32
2019-05-15T05:10:11.666Z,61.42
2019-05-15T05:11:11.675Z,61.32
2019-05-15T05:12:11.713Z,61.13
2019-05-15T05:13:11.720Z,61.23
2019-05-15T05:14:11.742Z,61.04
2019-05-15T05:15:11.785Z,60.57
2019-05-15T05:16:11.789Z,61.13
2019-05-15T05:17:11.806Z,60.85
2019-05-15T05:18:11.834Z,61.71
2019-05-15T05:19:11.859Z,61.23
2019-05-15T05:20:11.925Z,60.75
2019-05-15T05:21:11.907Z,61.13
2019-05-15T05:22:11.931Z,60.66
2019-05-15T05:23:11.939Z,60.85
2019-05-15T05:24:11.966Z,60.60
2019-05-15T05:25:11.979Z,60.88
2019-05-15T05:26:12.007Z,60.78
2019-05-15T05:27:12.022Z,60.69
2019-05-15T05:28:12.045Z,60.66
2019-05-15T05:29:12.079Z,60.02
2019-05-15T05:30:12.087Z,60.60
2019-05-15T05:31:14.105Z,60.02
2019-05-15T05:32:12.131Z,60.69
2019-05-15T05:33:12.165Z,60.69
2019-05-15T05:34:12.175Z,60.69
2019-05-15T05:35:12.198Z,60.41
2019-05-15T05:36:12.239Z,60.41
2019-05-15T05:37:12.251Z,60.41
2019-05-15T05:38:12.275Z,60.50
2019-05-15T05:39:15.321Z,60.78
2019-05-15T05:40:12.309Z,60.60
2019-05-15T05:41:12.325Z,60.41
2019-05-15T05:42:12.347Z,60.12
2019-05-15T05:43:12.393Z,60.21
2019-05-15T05:44:12.397Z,60.78
2019-05-15T05:45:12.411Z,60.60
2019-05-15T05:46:12.439Z,60.60
2019-05-15T05:47:12.472Z,60.50
2019-05-15T05:48:12.478Z,60.41
2019-05-15T05:49:12.504Z,60.41
2019-05-15T05:50:12.542Z,60.12
2019-05-15T05:51:12.556Z,60.41
2019-05-15T05:52:12.582Z,60.88
2019-05-15T05:53:12.591Z,61.26
2019-05-15T05:54:12.615Z,60.69
2019-05-15T05:55:12.629Z,60.50
2019-05-15T05:56:12.653Z,60.31
2019-05-15T05:57:12.679Z,60.31
2019-05-15T05:58:12.702Z,60.31
2019-05-15T05:59:12.725Z,60.12
2019-05-15T06:00:12.744Z,60.60
2019-05-15T06:01:12.829Z,60.60
2019-05-15T06:02:12.790Z,59.74
2019-05-15T06:03:12.816Z,60.21
2019-05-15T06:04:12.830Z,60.41
2019-05-15T06:05:12.850Z,60.31
2019-05-15T06:06:12.870Z,59.64
2019-05-15T06:07:14.312Z,59.96
2019-05-15T06:08:12.936Z,59.96
2019-05-15T06:09:12.939Z,59.96
2019-05-15T06:10:12.990Z,59.77
2019-05-15T06:11:12.987Z,59.96
2019-05-15T06:12:13.010Z,60.05
2019-05-15T06:13:13.022Z,59.96
2019-05-15T06:14:13.052Z,60.05
2019-05-15T06:15:13.072Z,60.05
2019-05-15T06:16:13.086Z,60.15
2019-05-15T06:17:13.143Z,60.15
2019-05-15T06:18:13.146Z,60.05
2019-05-15T06:19:13.161Z,59.67
2019-05-15T06:20:13.174Z,60.05
2019-05-15T06:21:13.206Z,60.15
2019-05-15T06:22:13.224Z,60.15
2019-05-15T06:23:13.256Z,59.10
2019-05-15T06:24:13.420Z,59.29
2019-05-15T06:25:13.311Z,59.58
2019-05-15T06:26:13.312Z,59.48
2019-05-15T06:27:13.327Z,58.62
2019-05-15T06:28:13.375Z,58.15
2019-05-15T06:29:13.377Z,58.25
2019-05-15T06:30:20.315Z,58.47
2019-05-15T06:31:13.418Z,59.99
2019-05-15T06:32:13.462Z,60.27
2019-05-15T06:33:13.711Z,58.28
2019-05-15T06:34:13.494Z,57.70
2019-05-15T06:35:13.516Z,57.51
2019-05-15T06:36:13.530Z,56.85
2019-05-15T06:37:13.557Z,60.02
2019-05-15T06:38:13.572Z,59.74
2019-05-15T06:39:13.613Z,56.46
2019-05-15T06:40:13.621Z,55.99
2019-05-15T06:41:13.644Z,56.09
2019-05-15T06:42:13.670Z,57.32
2019-05-15T06:43:13.699Z,57.82
2019-05-15T06:44:13.706Z,59.45
2019-05-15T06:45:13.729Z,57.73
2019-05-15T06:46:13.770Z,55.70
2019-05-15T06:47:13.773Z,55.99
2019-05-15T06:48:13.797Z,55.13
2019-05-15T06:49:13.826Z,54.37
2019-05-15T06:50:13.842Z,54.37
2019-05-15T06:51:13.863Z,54.66
2019-05-15T06:52:13.904Z,56.11
2019-05-15T06:53:13.920Z,55.92
2019-05-15T06:54:13.927Z,54.78
2019-05-15T06:55:13.959Z,54.27
2019-05-15T06:56:14.006Z,54.88
2019-05-15T06:57:14.015Z,55.07
2019-05-15T06:58:14.018Z,54.66
2019-05-15T06:59:14.060Z,53.89
2019-05-15T07:00:14.063Z,52.56
2019-05-15T07:01:14.096Z,52.94
2019-05-15T07:02:14.115Z,53.42
2019-05-15T07:03:21.599Z,53.23
2019-05-15T07:04:14.152Z,54.39
2019-05-15T07:05:14.177Z,53.42
2019-05-15T07:06:14.212Z,52.78
2019-05-15T07:07:14.222Z,52.87
2019-05-15T07:08:14.241Z,52.59
2019-05-15T07:09:14.266Z,53.16
2019-05-15T07:10:14.289Z,52.49
2019-05-15T07:11:14.314Z,53.73
2019-05-15T07:12:14.330Z,55.26
2019-05-15T07:13:14.361Z,52.87
2019-05-15T07:14:14.381Z,51.35
2019-05-15T07:15:14.401Z,50.59
2019-05-15T07:16:14.421Z,50.01
2019-05-15T07:17:14.475Z,50.68
2019-05-15T07:18:14.467Z,51.37
2019-05-15T07:19:14.498Z,50.71
2019-05-15T07:20:14.521Z,49.44
2019-05-15T07:21:17.574Z,49.35
2019-05-15T07:22:14.565Z,49.35
2019-05-15T07:23:14.590Z,49.16
2019-05-15T07:24:14.601Z,51.56
2019-05-15T07:25:14.628Z,50.52
2019-05-15T07:26:14.661Z,49.66
2019-05-15T07:27:14.679Z,50.23
2019-05-15T07:28:14.721Z,49.66
2019-05-15T07:29:14.718Z,49.28
2019-05-15T07:30:14.744Z,49.37
2019-05-15T07:31:14.759Z,48.71
2019-05-15T07:32:14.786Z,47.28
2019-05-15T07:33:14.803Z,47.20
2019-05-15T07:34:14.847Z,47.30
2019-05-15T07:35:14.861Z,46.54
2019-05-15T07:36:14.939Z,47.02
2019-05-15T07:37:14.905Z,45.97
2019-05-15T07:38:14.919Z,44.82
2019-05-15T07:39:14.951Z,44.15
2019-05-15T07:40:14.978Z,44.15
2019-05-15T07:41:14.985Z,44.73
2019-05-15T07:42:15.015Z,43.68
2019-05-15T07:43:15.038Z,42.91
2019-05-15T07:44:15.062Z,43.29
2019-05-15T07:45:15.077Z,43.68
2019-05-15T07:46:15.155Z,43.10
2019-05-15T07:47:15.120Z,42.72
2019-05-15T07:48:15.157Z,43.29
2019-05-15T07:49:15.167Z,43.58
2019-05-15T07:50:15.218Z,43.49
2019-05-15T07:51:17.817Z,43.29
2019-05-15T07:52:15.241Z,43.10
2019-05-15T07:53:15.266Z,43.01
2019-05-15T07:54:15.284Z,43.77
2019-05-15T07:55:15.314Z,43.68
2019-05-15T07:56:15.344Z,44.15
2019-05-15T07:57:15.354Z,44.06
2019-05-15T07:58:15.384Z,43.58
2019-05-15T07:59:15.417Z,42.91
2019-05-15T08:00:15.436Z,42.91
2019-05-15T08:01:15.446Z,43.51
2019-05-15T08:02:15.468Z,43.60
2019-05-15T08:03:15.488Z,43.41
2019-05-15T08:04:26.106Z,43.70
2019-05-15T08:05:18.079Z,43.51
2019-05-15T08:06:17.859Z,43.89
2019-05-15T08:07:15.582Z,45.03
2019-05-15T08:08:18.202Z,44.17
2019-05-15T08:09:17.864Z,43.22
2019-05-15T08:10:18.136Z,43.05
2019-05-15T08:11:20.906Z,43.32
2019-05-15T08:12:15.712Z,43.32
2019-05-15T08:13:18.175Z,42.93
2019-05-15T08:14:18.338Z,42.96
2019-05-15T08:15:18.129Z,42.96
2019-05-15T08:16:17.970Z,43.91
2019-05-15T08:17:18.998Z,43.33
2019-05-15T08:18:17.840Z,43.15
2019-05-15T08:19:18.179Z,42.77
2019-05-15T08:20:18.224Z,42.86
2019-05-15T08:21:18.439Z,43.43
2019-05-15T08:22:18.182Z,42.96
2019-05-15T08:23:15.953Z,43.15
2019-05-15T08:24:15.978Z,43.05
2019-05-15T08:25:30.084Z,43.62
2019-05-15T08:26:17.837Z,43.62
2019-05-15T08:27:16.046Z,43.72
2019-05-15T08:28:18.678Z,43.24
2019-05-15T08:29:19.328Z,43.72
2019-05-15T08:30:18.211Z,43.72
2019-05-15T08:31:18.166Z,43.05
2019-05-15T08:32:16.171Z,42.10
2019-05-15T08:33:17.876Z,40.88
2019-05-15T08:34:16.578Z,39.92
2019-05-15T08:35:18.921Z,40.59
2019-05-15T08:36:18.191Z,41.45
2019-05-15T08:37:18.282Z,40.49
2019-05-15T08:38:18.291Z,39.73
2019-05-15T08:39:18.856Z,38.96
2019-05-15T08:40:17.853Z,38.78
2019-05-15T08:41:18.590Z,38.76
2019-05-15T08:42:18.672Z,39.42
2019-05-15T08:43:18.428Z,39.73
2019-05-15T08:44:18.664Z,39.83
2019-05-15T08:45:18.691Z,39.92
2019-05-15T08:46:18.643Z,40.23
2019-05-15T08:47:19.180Z,41.09
2019-05-15T08:48:18.527Z,40.70
2019-05-15T08:49:16.564Z,40.44
2019-05-15T08:50:18.297Z,40.53
2019-05-15T08:51:19.081Z,40.25
2019-05-15T08:52:18.812Z,40.55
2019-05-15T08:53:18.982Z,39.98
2019-05-15T08:54:18.377Z,39.29
2019-05-15T08:55:16.703Z,39.60
2019-05-15T08:56:19.154Z,37.78
2019-05-15T08:57:20.223Z,39.00
2019-05-15T08:58:20.067Z,39.50
2019-05-15T08:59:18.816Z,37.95
2019-05-15T09:00:18.595Z,37.76
2019-05-15T09:01:18.060Z,37.66
2019-05-15T09:02:18.551Z,37.76
2019-05-15T09:03:18.271Z,39.12
2019-05-15T09:04:27.881Z,40.55
2019-05-15T09:05:18.782Z,40.25
2019-05-15T09:06:19.496Z,42.37
2019-05-15T09:07:18.073Z,44.00
2019-05-15T09:08:19.305Z,39.29
2019-05-15T09:09:18.244Z,38.24
2019-05-15T09:10:18.371Z,37.19
2019-05-15T09:11:19.205Z,37.68
2019-05-15T09:12:18.874Z,37.68
2019-05-15T09:13:19.023Z,37.88
2019-05-15T09:14:18.545Z,37.78
2019-05-15T09:15:18.475Z,39.50
2019-05-15T09:16:18.497Z,39.40
2019-05-15T09:17:18.158Z,38.93
2019-05-15T09:18:19.914Z,40.55
2019-05-15T09:19:18.481Z,40.17
2019-05-15T09:20:19.418Z,39.03
2019-05-15T09:21:19.180Z,38.66
2019-05-15T09:22:18.687Z,37.70
2019-05-15T09:23:19.321Z,37.32
2019-05-15T09:24:19.655Z,40.86
2019-05-15T09:25:19.397Z,38.68
2019-05-15T09:26:19.452Z,36.96
2019-05-15T09:27:18.522Z,37.23
2019-05-15T09:28:19.045Z,37.41
2019-05-15T09:29:18.240Z,37.40
2019-05-15T09:30:18.345Z,37.30
2019-05-15T09:31:19.224Z,39.98
2019-05-15T09:32:19.127Z,41.70
2019-05-15T09:33:20.168Z,39.12
2019-05-15T09:34:18.523Z,38.28
2019-05-15T09:35:18.679Z,37.99
2019-05-15T09:36:20.256Z,37.63
2019-05-15T09:37:18.126Z,37.24
2019-05-15T09:38:18.404Z,36.55
2019-05-15T09:39:18.250Z,36.75
2019-05-15T09:40:18.617Z,38.18
2019-05-15T09:41:18.011Z,37.80
2019-05-15T09:42:18.046Z,37.99
2019-05-15T09:43:18.288Z,38.85
2019-05-15T09:44:21.729Z,38.78
2019-05-15T09:45:18.073Z,38.10
2019-05-15T09:46:18.490Z,37.32
2019-05-15T09:47:18.909Z,36.92
2019-05-15T09:48:19.839Z,37.40
2019-05-15T09:49:18.283Z,37.28
2019-05-15T09:50:19.329Z,38.34
2019-05-15T09:51:18.452Z,39.12
2019-05-15T09:52:22.558Z,39.31
2019-05-15T09:53:18.817Z,39.31
2019-05-15T09:54:19.396Z,40.75
2019-05-15T09:55:18.231Z,39.50
2019-05-15T09:56:18.639Z,38.54
2019-05-15T09:57:18.829Z,38.35
2019-05-15T09:58:20.376Z,37.49
2019-05-15T09:59:18.748Z,37.30
2019-05-15T10:00:18.927Z,38.07
2019-05-15T10:01:19.626Z,38.64
2019-05-15T10:02:19.022Z,37.88
2019-05-15T10:03:18.939Z,38.17
2019-05-15T10:04:18.989Z,38.07
2019-05-15T10:05:18.877Z,37.57
2019-05-15T10:06:20.602Z,37.88
2019-05-15T10:07:19.259Z,38.17
2019-05-15T10:08:21.324Z,37.88
2019-05-15T10:09:19.070Z,38.74
2019-05-15T10:10:19.207Z,39.89
2019-05-15T10:11:19.654Z,39.98
2019-05-15T10:12:18.587Z,41.99
2019-05-15T10:13:18.768Z,40.77
2019-05-15T10:14:19.473Z,38.83
2019-05-15T10:15:18.825Z,38.64
2019-05-15T10:16:19.810Z,40.36
2019-05-15T10:17:18.699Z,39.98
2019-05-15T10:18:19.218Z,39.67
2019-05-15T10:19:18.784Z,39.84
2019-05-15T10:20:18.770Z,40.42
2019-05-15T10:21:18.890Z,40.70
2019-05-15T10:22:18.868Z,40.89
2019-05-15T10:23:19.875Z,40.52
2019-05-15T10:24:18.871Z,41.18
2019-05-15T10:25:19.144Z,41.09
2019-05-15T10:26:19.479Z,41.85
2019-05-15T10:27:18.945Z,41.18
2019-05-15T10:28:19.447Z,40.42
2019-05-15T10:29:18.994Z,40.89
2019-05-15T10:30:19.149Z,41.26
2019-05-15T10:31:19.729Z,41.47
2019-05-15T10:32:19.635Z,42.52
2019-05-15T10:33:20.149Z,42.61
2019-05-15T10:34:19.114Z,42.04
2019-05-15T10:35:28.124Z,41.47
2019-05-15T10:36:19.310Z,41.16
2019-05-15T10:37:19.216Z,41.64
2019-05-15T10:38:19.683Z,41.74
2019-05-15T10:39:19.298Z,43.17
2019-05-15T10:40:20.482Z,43.07
2019-05-15T10:41:19.294Z,43.19
2019-05-15T10:42:19.512Z,45.01
2019-05-15T10:43:20.581Z,43.09
2019-05-15T10:44:19.359Z,43.19
2019-05-15T10:45:19.487Z,43.00
2019-05-15T10:46:19.405Z,42.90
2019-05-15T10:47:19.429Z,43.09
2019-05-15T10:48:19.464Z,42.50
2019-05-15T10:49:19.475Z,43.07
2019-05-15T10:50:19.505Z,43.93
2019-05-15T10:51:19.898Z,43.07
2019-05-15T10:52:19.548Z,43.36
2019-05-15T10:53:19.576Z,43.65
2019-05-15T10:54:19.597Z,43.65
2019-05-15T10:55:19.618Z,44.02
2019-05-15T10:56:19.642Z,44.22
2019-05-15T10:57:19.670Z,45.65
2019-05-15T10:58:22.201Z,45.48
2019-05-15T10:59:19.719Z,44.70
2019-05-15T11:00:19.746Z,43.55
2019-05-15T11:01:19.788Z,43.46
2019-05-15T11:02:19.802Z,43.93
2019-05-15T11:03:20.213Z,43.26
2019-05-15T11:04:19.834Z,43.46
2019-05-15T11:05:19.857Z,43.36
2019-05-15T11:06:19.889Z,43.17
2019-05-15T11:07:19.908Z,43.84
2019-05-15T11:08:19.935Z,44.22
2019-05-15T11:09:19.955Z,44.98
2019-05-15T11:10:19.981Z,44.89
2019-05-15T11:11:20.013Z,45.08
2019-05-15T11:12:20.029Z,44.70
2019-05-15T11:13:20.081Z,43.65
2019-05-15T11:14:20.087Z,43.65
2019-05-15T11:15:20.099Z,43.26
2019-05-15T11:16:21.281Z,43.65
2019-05-15T11:17:20.151Z,43.55
2019-05-15T11:18:20.167Z,43.84
2019-05-15T11:19:20.220Z,43.84
2019-05-15T11:20:20.222Z,43.93
2019-05-15T11:21:20.246Z,43.86
2019-05-15T11:22:20.271Z,43.55
2019-05-15T11:23:20.545Z,43.65
2019-05-15T11:24:20.343Z,44.15
2019-05-15T11:25:20.335Z,43.86
2019-05-15T11:26:20.483Z,44.34
2019-05-15T11:27:20.385Z,43.38
2019-05-15T11:28:20.431Z,43.95
2019-05-15T11:29:20.443Z,47.42
2019-05-15T11:30:20.455Z,52.48
2019-05-15T11:31:20.487Z,53.53
2019-05-15T11:32:20.512Z,56.02
2019-05-15T11:33:20.531Z,48.09
2019-05-15T11:34:20.574Z,45.12
2019-05-15T11:35:20.582Z,44.07
2019-05-15T11:36:20.601Z,44.43
2019-05-15T11:37:20.625Z,46.25
2019-05-15T11:38:20.651Z,48.35
2019-05-15T11:39:20.676Z,48.18
2019-05-15T11:40:20.693Z,49.62
2019-05-15T11:41:20.716Z,51.53
2019-05-15T11:42:20.742Z,48.57
2019-05-15T11:43:20.789Z,52.87
2019-05-15T11:44:20.806Z,53.34
2019-05-15T11:45:20.822Z,56.02
2019-05-15T11:46:20.846Z,56.21
2019-05-15T11:47:20.862Z,54.68
2019-05-15T11:48:21.835Z,55.35
2019-05-15T11:49:20.920Z,57.77
2019-05-15T11:50:21.075Z,54.43
2019-05-15T11:51:20.958Z,55.00
2019-05-15T11:52:20.982Z,51.53
2019-05-15T11:53:21.003Z,52.32
2019-05-15T11:54:21.033Z,47.61
2019-05-15T11:55:21.053Z,48.09
2019-05-15T11:56:21.078Z,51.65
2019-05-15T11:57:37.001Z,50.12
2019-05-15T11:58:21.129Z,51.46
2019-05-15T11:59:21.150Z,52.99
2019-05-15T12:00:26.805Z,53.37
2019-05-15T12:01:21.197Z,49.45
2019-05-15T12:02:21.222Z,45.79
2019-05-15T12:03:24.641Z,46.56
2019-05-15T12:04:30.165Z,49.55
2019-05-15T12:05:21.301Z,48.38
2019-05-15T12:06:22.998Z,47.03
2019-05-15T12:07:21.344Z,54.14
2019-05-15T12:08:21.364Z,51.93
2019-05-15T12:09:21.395Z,54.04
2019-05-15T12:10:21.418Z,54.14
2019-05-15T12:11:33.450Z,50.02
2019-05-15T12:12:21.466Z,50.41
2019-05-15T12:13:21.487Z,51.07
2019-05-15T12:14:21.512Z,46.20
2019-05-15T12:15:21.538Z,45.34
2019-05-15T12:16:21.564Z,45.05
2019-05-15T12:17:21.586Z,44.57
2019-05-15T12:18:21.612Z,45.36
2019-05-15T12:19:21.635Z,44.98
2019-05-15T12:20:21.654Z,44.98
2019-05-15T12:21:21.683Z,43.73
2019-05-15T12:22:21.712Z,43.33
2019-05-15T12:23:21.743Z,43.14
2019-05-15T12:24:21.764Z,42.94
2019-05-15T12:25:21.780Z,43.33
2019-05-15T12:26:21.802Z,49.57
2019-05-15T12:27:21.842Z,48.23
2019-05-15T12:28:21.858Z,49.57
2019-05-15T12:29:21.895Z,48.42
2019-05-15T12:30:21.916Z,45.26
2019-05-15T12:31:24.733Z,42.97
2019-05-15T12:32:31.241Z,42.66
2019-05-15T12:33:21.986Z,43.04
2019-05-15T12:34:22.000Z,42.56
2019-05-15T12:35:22.035Z,43.23
2019-05-15T12:37:22.077Z,43.26
2019-05-15T12:38:22.096Z,43.14
2019-05-15T12:39:22.334Z,44.00
2019-05-15T13:00:22.635Z,43.40
2019-05-15T13:01:22.664Z,45.03
2019-05-15T13:02:22.684Z,45.41
2019-05-15T13:03:22.711Z,44.84
2019-05-15T13:04:22.729Z,45.51
2019-05-15T13:05:22.756Z,45.70
2019-05-15T13:06:22.784Z,46.25
2019-05-15T13:07:22.810Z,47.20
2019-05-15T13:08:22.827Z,46.82
2019-05-15T13:09:22.853Z,47.30
2019-05-15T13:10:22.894Z,48.44
2019-05-15T13:11:22.901Z,48.25
2019-05-15T13:12:22.929Z,48.54
2019-05-15T13:13:22.947Z,48.73
2019-05-15T13:14:22.972Z,49.02